Woodburn, Mississippi
Current Conditions -  °F | °C
As of 10:53 PM on Wednesday 22 Oct 2014 (Local Time) from KGLH Reporting Station
Clear Clear  
Wind Chill: 11°   Ceiling: Unl
Heat Index: 11°   Visibility: 10mi
Dew Point:   Wind: 5mph
Humidity: 74%   Direction: 10°N
Pressure: 30.16"   Gusts: NA
Location:  33.4825°N, 90.6856°W
Report Text: KGLH 230353Z AUTO 01004KT 10SM CLR 11/07 A3016 RMK AO2 SLP221 T01110067
Loading
Personal Weather Stations






























Interactive Weather Map
Tropical Storm Tracking
New forecast layout! Learn more

10-Day Weather Forecast

Advertisements
Track Severe Weather on mobile